createdAt,value
2018-08-04T00:00:49.316Z,20.50
2018-08-04T00:03:17.197Z,20.40
2018-08-04T00:05:45.107Z,20.40
2018-08-04T00:08:13.718Z,20.40
2018-08-04T00:10:45.313Z,20.30
2018-08-04T00:13:13.149Z,20.20
2018-08-04T00:15:41.021Z,20.20
2018-08-04T00:18:09.674Z,20.10
2018-08-04T00:23:05.348Z,20.10
2018-08-04T00:25:33.206Z,20.10
2018-08-04T00:28:01.126Z,20.10
2018-08-04T00:30:29.043Z,20.10
2018-08-04T00:32:56.914Z,20.10
2018-08-04T00:35:24.833Z,20.10
2018-08-04T00:40:20.562Z,20.10
2018-08-04T00:42:49.411Z,20.00
2018-08-04T00:45:17.297Z,19.90
2018-08-04T00:47:45.865Z,19.80
2018-08-04T00:50:13.779Z,19.80
2018-08-04T00:52:41.711Z,19.80
2018-08-04T00:55:10.193Z,19.70
2018-08-04T00:57:38.151Z,19.80
2018-08-04T01:00:06.122Z,19.70
2018-08-04T01:02:33.975Z,19.60
2018-08-04T01:05:02.614Z,19.60
2018-08-04T01:07:30.518Z,19.70
2018-08-04T01:10:03.524Z,19.60
2018-08-04T01:12:31.834Z,19.60
2018-08-04T01:15:00.211Z,19.50
2018-08-04T01:17:28.457Z,19.50
2018-08-04T01:20:00.958Z,19.30
2018-08-04T01:24:58.008Z,19.10
2018-08-04T01:27:26.671Z,18.90
2018-08-04T01:29:54.593Z,18.90
2018-08-04T01:34:50.628Z,19.10
2018-08-04T01:37:18.542Z,19.10
2018-08-04T01:39:46.415Z,19.10
2018-08-04T01:42:14.304Z,19.10
2018-08-04T01:44:42.160Z,19.10
2018-08-04T01:47:10.038Z,19.10
2018-08-04T01:49:37.898Z,19.10
2018-08-04T01:52:06.584Z,19.10
2018-08-04T01:54:34.476Z,19.10
2018-08-04T01:57:02.371Z,19.10
2018-08-04T02:01:58.049Z,19.10
2018-08-04T02:04:26.371Z,19.20
2018-08-04T02:06:55.937Z,19.20
2018-08-04T02:09:23.817Z,19.20
2018-08-04T02:11:52.311Z,19.20
2018-08-04T02:14:20.168Z,19.10
2018-08-04T02:16:48.037Z,19.10
2018-08-04T02:19:15.957Z,19.00
2018-08-04T02:21:43.867Z,18.90
2018-08-04T02:24:11.720Z,18.90
2018-08-04T02:26:39.622Z,18.90
2018-08-04T02:29:07.551Z,19.00
2018-08-04T02:31:35.553Z,18.90
2018-08-04T02:34:03.494Z,18.80
2018-08-04T02:36:32.000Z,18.80
2018-08-04T02:39:00.853Z,18.80
2018-08-04T02:41:28.738Z,18.70
2018-08-04T02:43:56.646Z,18.60
2018-08-04T02:46:25.204Z,18.50
2018-08-04T02:48:53.515Z,18.40
2018-08-04T02:51:21.391Z,18.20
2018-08-04T02:53:49.285Z,18.10
2018-08-04T02:56:17.205Z,18.10
2018-08-04T03:03:40.702Z,18.40
2018-08-04T03:06:08.598Z,18.40
2018-08-04T03:08:36.523Z,18.40
2018-08-04T03:13:32.369Z,18.40
2018-08-04T03:16:00.874Z,18.40
2018-08-04T03:18:28.796Z,18.30
2018-08-04T03:20:56.691Z,18.30
2018-08-04T03:23:25.375Z,18.30
2018-08-04T03:25:53.328Z,18.40
2018-08-04T03:28:21.179Z,18.40
2018-08-04T03:30:49.079Z,18.30
2018-08-04T03:35:45.113Z,18.30
2018-08-04T03:38:13.038Z,18.20
2018-08-04T03:52:10.216Z,17.80
2018-08-04T03:54:38.494Z,17.60
2018-08-04T03:57:07.034Z,17.50
2018-08-04T03:59:36.120Z,17.40
2018-08-04T04:02:04.055Z,17.50
2018-08-04T04:04:32.857Z,17.50
2018-08-04T04:07:01.321Z,17.70
2018-08-04T04:09:29.285Z,17.80
2018-08-04T04:11:57.239Z,17.80
2018-08-04T04:14:25.169Z,17.80
2018-08-04T04:16:53.161Z,17.80
2018-08-04T04:19:21.046Z,17.80
2018-08-04T04:26:45.163Z,17.90
2018-08-04T04:29:13.116Z,18.10
2018-08-04T04:31:41.021Z,18.10
2018-08-04T04:36:36.816Z,18.10
2018-08-04T04:39:08.323Z,18.10
2018-08-04T04:41:36.295Z,18.00
2018-08-04T04:44:04.209Z,18.00
2018-08-04T04:46:36.611Z,18.00
2018-08-04T04:49:04.902Z,18.10
2018-08-04T04:51:32.812Z,18.10
2018-08-04T04:54:00.710Z,18.20
2018-08-04T04:56:29.405Z,18.20
2018-08-04T04:58:57.315Z,18.30
2018-08-04T05:01:25.236Z,18.40
2018-08-04T05:03:53.402Z,18.60
2018-08-04T05:06:21.320Z,18.70
2018-08-04T05:08:49.861Z,18.70
2018-08-04T05:11:17.750Z,18.70
2018-08-04T05:16:13.402Z,19.00
2018-08-04T05:18:41.550Z,19.30
2018-08-04T05:21:09.601Z,19.50
2018-08-04T05:26:05.801Z,19.60
2018-08-04T05:28:33.702Z,19.70
2018-08-04T05:31:02.382Z,19.90
2018-08-04T05:33:31.078Z,20.10
2018-08-04T05:35:59.375Z,20.20
2018-08-04T05:40:55.067Z,20.70
2018-08-04T05:43:23.091Z,20.90
2018-08-04T05:45:50.957Z,21.20
2018-08-04T05:48:18.906Z,21.50
2018-08-04T05:50:46.832Z,21.70
2018-08-04T05:53:15.410Z,22.00
2018-08-04T05:55:43.355Z,22.30
2018-08-04T05:58:11.973Z,22.80
2018-08-04T06:00:41.049Z,22.90
2018-08-04T06:05:36.751Z,23.80
2018-08-04T06:08:04.750Z,24.10
2018-08-04T06:10:32.664Z,24.50
2018-08-04T06:13:01.154Z,24.80
2018-08-04T06:15:29.723Z,24.90
2018-08-04T06:17:57.644Z,25.00
2018-08-04T06:22:53.394Z,24.80
2018-08-04T06:25:21.950Z,24.70
2018-08-04T06:27:51.547Z,24.70
2018-08-04T06:30:19.579Z,24.80
2018-08-04T06:32:47.491Z,24.90
2018-08-04T06:40:11.128Z,25.20
2018-08-04T06:42:39.037Z,25.20
2018-08-04T06:45:07.972Z,25.20
2018-08-04T06:47:35.831Z,25.30
2018-08-04T06:50:04.154Z,25.30
2018-08-04T06:52:32.154Z,25.40
2018-08-04T06:57:27.817Z,25.50
2018-08-04T07:00:02.921Z,25.30
2018-08-04T07:04:58.575Z,25.20
2018-08-04T07:07:26.484Z,25.10
2018-08-04T07:12:22.602Z,25.20
2018-08-04T07:17:18.353Z,25.50
2018-08-04T07:19:47.498Z,25.60
2018-08-04T07:22:15.416Z,25.60
2018-08-04T07:24:44.656Z,26.10
2018-08-04T07:29:40.620Z,26.60
2018-08-04T07:32:09.895Z,26.80
2018-08-04T07:42:02.394Z,27.20
2018-08-04T07:44:30.464Z,27.30
2018-08-04T07:46:58.451Z,27.50
2018-08-04T07:49:27.079Z,27.60
2018-08-04T07:51:54.995Z,27.70
2018-08-04T07:54:22.942Z,27.80
2018-08-04T07:56:50.860Z,27.90
2018-08-04T07:59:19.483Z,28.10
2018-08-04T08:01:47.444Z,28.20
2018-08-04T08:04:15.976Z,28.30
2018-08-04T08:06:44.668Z,28.20
2018-08-04T08:09:13.899Z,28.30
2018-08-04T08:11:41.834Z,28.40
2018-08-04T08:14:09.802Z,28.50
2018-08-04T08:16:39.139Z,28.50
2018-08-04T08:19:07.267Z,28.70
2018-08-04T08:24:03.074Z,28.70
2018-08-04T08:26:31.020Z,28.80
2018-08-04T08:28:58.917Z,29.00
2018-08-04T08:31:26.910Z,29.00
2018-08-04T08:33:54.742Z,29.00
2018-08-04T08:36:22.669Z,29.00
2018-08-04T08:38:51.384Z,29.20
2018-08-04T08:41:19.296Z,29.60
2018-08-04T08:43:47.251Z,29.60
2018-08-04T08:46:15.191Z,29.70
2018-08-04T08:48:43.081Z,29.70
2018-08-04T08:51:11.136Z,29.80
2018-08-04T08:53:40.522Z,29.60
2018-08-04T09:01:05.455Z,29.90
2018-08-04T09:03:35.410Z,30.00
2018-08-04T09:06:03.426Z,30.00
2018-08-04T09:08:31.388Z,30.20
2018-08-04T09:10:59.242Z,30.70
2018-08-04T09:15:54.928Z,30.70
2018-08-04T09:18:24.133Z,30.80
2018-08-04T09:20:52.059Z,30.70
2018-08-04T09:23:20.007Z,31.10
2018-08-04T09:25:48.320Z,31.10
2018-08-04T09:28:16.287Z,31.30
2018-08-04T09:30:44.276Z,31.30
2018-08-04T09:33:12.224Z,31.10
2018-08-04T09:35:40.302Z,31.10
2018-08-04T09:38:09.230Z,31.10
2018-08-04T09:40:37.091Z,31.40
2018-08-04T09:43:05.860Z,31.60
2018-08-04T09:45:33.870Z,31.90
2018-08-04T09:48:02.711Z,32.00
2018-08-04T09:50:30.634Z,32.20
2018-08-04T09:55:26.234Z,31.90
2018-08-04T09:57:54.101Z,31.80
2018-08-04T10:00:31.886Z,32.20
2018-08-04T10:03:00.304Z,32.40
2018-08-04T10:05:28.244Z,32.70
2018-08-04T10:07:56.936Z,32.90
2018-08-04T10:10:24.887Z,32.80
2018-08-04T10:12:52.957Z,32.90
2018-08-04T10:15:20.895Z,32.80
2018-08-04T10:22:45.646Z,32.90
2018-08-04T10:25:13.994Z,33.10
2018-08-04T10:27:42.620Z,33.10
2018-08-04T10:30:11.928Z,33.00
2018-08-04T10:32:39.934Z,33.10
2018-08-04T10:35:08.722Z,33.00
2018-08-04T10:40:05.608Z,33.00
2018-08-04T10:42:33.494Z,33.20
2018-08-04T10:45:01.425Z,33.20
2018-08-04T10:47:29.347Z,33.20
2018-08-04T10:49:57.252Z,33.20
2018-08-04T10:52:25.431Z,33.20
2018-08-04T10:57:21.166Z,33.10
2018-08-04T10:59:49.455Z,33.00
2018-08-04T11:02:17.457Z,33.20
2018-08-04T11:04:45.382Z,33.20
2018-08-04T11:07:13.274Z,33.40
2018-08-04T11:09:41.201Z,33.50
2018-08-04T11:12:09.189Z,33.50
2018-08-04T11:14:37.166Z,33.50
2018-08-04T11:19:33.456Z,33.60
2018-08-04T11:22:02.208Z,33.60
2018-08-04T11:24:30.121Z,33.50
2018-08-04T11:26:58.535Z,33.30
2018-08-04T11:29:27.103Z,33.20
2018-08-04T11:31:55.009Z,33.50
2018-08-04T11:36:50.754Z,33.80
2018-08-04T11:39:18.699Z,33.90
2018-08-04T11:41:46.632Z,33.80
2018-08-04T11:44:14.472Z,33.90
2018-08-04T11:46:42.345Z,34.00
2018-08-04T11:49:10.599Z,34.00
2018-08-04T11:51:38.631Z,34.10
2018-08-04T11:54:06.576Z,33.80
2018-08-04T11:56:34.825Z,33.50
2018-08-04T11:59:03.531Z,33.70
2018-08-04T12:01:31.979Z,33.80
2018-08-04T12:03:59.987Z,34.00
2018-08-04T12:06:28.035Z,33.90
2018-08-04T12:08:56.080Z,33.90
2018-08-04T12:13:51.748Z,33.90
2018-08-04T12:16:20.303Z,33.90
2018-08-04T12:18:48.201Z,33.70
2018-08-04T12:21:16.133Z,33.90
2018-08-04T12:23:44.032Z,33.80
2018-08-04T12:26:11.974Z,33.80
2018-08-04T12:28:39.875Z,34.20
2018-08-04T12:31:07.796Z,34.50
2018-08-04T12:36:04.512Z,34.60
2018-08-04T12:38:32.373Z,34.90
2018-08-04T12:41:00.292Z,35.00
2018-08-04T12:43:28.212Z,35.00
2018-08-04T12:45:56.192Z,35.10
2018-08-04T12:48:28.185Z,35.10
2018-08-04T12:50:56.898Z,35.10
2018-08-04T12:53:25.066Z,35.10
2018-08-04T12:58:20.850Z,35.00
2018-08-04T13:00:48.793Z,34.60
2018-08-04T13:03:16.693Z,34.60
2018-08-04T13:05:44.927Z,34.60
2018-08-04T13:08:12.915Z,34.50
2018-08-04T13:10:40.840Z,34.40
2018-08-04T13:15:37.186Z,34.50
2018-08-04T13:20:32.954Z,34.50
2018-08-04T13:23:02.256Z,34.50
2018-08-04T13:25:30.375Z,34.40
2018-08-04T13:27:58.297Z,34.50
2018-08-04T13:30:26.238Z,34.70
2018-08-04T13:32:54.810Z,34.70
2018-08-04T13:37:51.143Z,34.50
2018-08-04T13:40:18.995Z,34.70
2018-08-04T13:42:46.955Z,34.90
2018-08-04T13:45:15.000Z,34.90
2018-08-04T13:47:43.258Z,34.80
2018-08-04T13:52:39.039Z,34.70
2018-08-04T13:55:07.164Z,34.50
2018-08-04T14:00:04.363Z,34.50
2018-08-04T14:02:32.266Z,34.50
2018-08-04T14:05:00.860Z,34.70
2018-08-04T14:07:28.807Z,34.70
2018-08-04T14:09:56.741Z,34.80
2018-08-04T14:12:24.999Z,34.80
2018-08-04T14:14:52.948Z,34.70
2018-08-04T14:17:20.987Z,34.50
2018-08-04T14:19:48.960Z,34.40
2018-08-04T14:22:17.197Z,34.30
2018-08-04T14:24:45.767Z,34.30
2018-08-04T14:27:13.692Z,34.30
2018-08-04T14:29:41.598Z,34.20
2018-08-04T14:37:05.438Z,34.20
2018-08-04T14:39:33.652Z,34.10
2018-08-04T14:42:01.562Z,34.10
2018-08-04T14:44:29.527Z,34.10
2018-08-04T14:49:25.233Z,34.10
2018-08-04T14:51:53.191Z,34.20
2018-08-04T14:54:21.091Z,34.20
2018-08-04T14:56:48.998Z,34.10
2018-08-04T14:59:16.989Z,34.20
2018-08-04T15:01:44.897Z,34.30
2018-08-04T15:04:13.214Z,34.40
2018-08-04T15:09:10.674Z,34.10
2018-08-04T15:11:39.236Z,34.10
2018-08-04T15:14:07.831Z,34.00
2018-08-04T15:19:04.561Z,33.90
2018-08-04T15:21:32.492Z,33.80
2018-08-04T15:24:01.345Z,33.70
2018-08-04T15:28:57.179Z,33.50
2018-08-04T15:31:25.001Z,33.50
2018-08-04T15:33:53.125Z,33.30
2018-08-04T15:36:21.089Z,33.20
2018-08-04T15:41:16.933Z,33.00
2018-08-04T15:43:44.917Z,33.00
2018-08-04T15:46:13.137Z,33.10
2018-08-04T15:48:40.990Z,33.10
2018-08-04T15:51:08.853Z,33.10
2018-08-04T15:53:36.777Z,32.90
2018-08-04T15:58:32.608Z,32.90
2018-08-04T16:01:00.533Z,33.10
2018-08-04T16:03:28.799Z,33.10
2018-08-04T16:05:56.704Z,33.00
2018-08-04T16:08:24.706Z,33.00
2018-08-04T16:10:52.649Z,32.90
2018-08-04T16:15:48.806Z,32.90
2018-08-04T16:18:16.723Z,32.90
2018-08-04T16:20:44.619Z,32.90
2018-08-04T16:23:12.515Z,32.80
2018-08-04T16:25:40.677Z,32.80
2018-08-04T16:28:08.626Z,32.70
2018-08-04T16:30:36.627Z,32.60
2018-08-04T16:33:04.535Z,32.60
2018-08-04T16:35:32.504Z,32.50
2018-08-04T16:38:00.427Z,32.50
2018-08-04T16:42:56.088Z,32.40
2018-08-04T16:45:24.015Z,32.30
2018-08-04T16:50:19.679Z,32.20
2018-08-04T16:52:47.595Z,32.10
2018-08-04T16:55:15.543Z,32.10
2018-08-04T16:57:43.772Z,32.10
2018-08-04T17:02:39.464Z,32.00
2018-08-04T17:05:07.515Z,31.90
2018-08-04T17:07:35.506Z,31.80
2018-08-04T17:10:03.780Z,31.80
2018-08-04T17:12:31.710Z,31.70
2018-08-04T17:14:59.982Z,31.50
2018-08-04T17:17:27.892Z,31.50
2018-08-04T17:19:55.767Z,31.40
2018-08-04T17:22:23.979Z,31.40
2018-08-04T17:24:52.041Z,31.40
2018-08-04T17:27:26.144Z,31.50
2018-08-04T17:29:54.041Z,31.50
2018-08-04T17:32:22.426Z,31.50
2018-08-04T17:34:50.875Z,31.50
2018-08-04T17:37:19.493Z,31.40
2018-08-04T17:39:47.427Z,31.30
2018-08-04T17:42:15.819Z,31.10
2018-08-04T17:47:11.470Z,30.90
2018-08-04T17:49:39.420Z,30.80
2018-08-04T17:52:07.400Z,30.70
2018-08-04T17:54:35.349Z,30.60
2018-08-04T17:57:03.428Z,30.50
2018-08-04T17:59:31.276Z,30.40
2018-08-04T18:04:27.526Z,30.20
2018-08-04T18:09:23.843Z,30.00
2018-08-04T18:11:51.791Z,29.80
2018-08-04T18:14:19.699Z,29.70
2018-08-04T18:16:47.568Z,29.80
2018-08-04T18:19:15.415Z,29.80
2018-08-04T18:21:43.754Z,29.70
2018-08-04T18:26:39.405Z,29.50
2018-08-04T18:29:08.048Z,29.50
2018-08-04T18:31:35.972Z,29.40
2018-08-04T18:34:03.946Z,29.40
2018-08-04T18:36:31.962Z,29.30
2018-08-04T18:39:00.483Z,29.20
2018-08-04T18:41:28.799Z,29.30
2018-08-04T18:43:57.214Z,29.30
2018-08-04T18:46:25.125Z,29.30
2018-08-04T18:48:52.979Z,29.40
2018-08-04T18:51:21.817Z,29.30
2018-08-04T18:53:49.696Z,29.30
2018-08-04T18:56:18.210Z,29.20
2018-08-04T18:58:46.099Z,29.20
2018-08-04T19:01:14.013Z,29.20
2018-08-04T19:03:41.932Z,29.20
2018-08-04T19:06:09.856Z,29.20
2018-08-04T19:13:33.341Z,29.00
2018-08-04T19:18:29.555Z,28.70
2018-08-04T19:20:57.539Z,28.60
2018-08-04T19:23:26.142Z,28.40
2018-08-04T19:25:54.015Z,28.30
2018-08-04T19:28:21.932Z,28.30
2018-08-04T19:30:49.888Z,28.30
2018-08-04T19:33:18.512Z,28.20
2018-08-04T19:35:47.217Z,28.20
2018-08-04T19:38:15.155Z,28.00
2018-08-04T19:40:43.036Z,27.90
2018-08-04T19:43:11.582Z,27.70
2018-08-04T19:45:40.626Z,27.60
2018-08-04T19:48:08.687Z,27.60
2018-08-04T19:50:37.122Z,27.50
2018-08-04T19:55:33.269Z,27.40
2018-08-04T20:00:28.975Z,27.10
2018-08-04T20:07:52.367Z,26.90
2018-08-04T20:15:15.769Z,26.90
2018-08-04T20:20:11.797Z,26.70
2018-08-04T20:22:40.580Z,26.60
2018-08-04T20:25:08.551Z,26.60
2018-08-04T20:27:36.590Z,26.60
2018-08-04T20:30:05.925Z,26.50
2018-08-04T20:32:33.855Z,26.40
2018-08-04T20:35:01.825Z,26.30
2018-08-04T20:37:29.704Z,26.30
2018-08-04T20:39:57.660Z,26.20
2018-08-04T20:42:25.527Z,26.10
2018-08-04T20:44:53.457Z,26.10
2018-08-04T20:52:18.732Z,25.90
2018-08-04T20:54:47.146Z,25.80
2018-08-04T20:57:15.464Z,25.80
2018-08-04T20:59:43.344Z,25.70
2018-08-04T21:04:39.068Z,25.70
2018-08-04T21:07:07.119Z,25.60
2018-08-04T21:09:35.006Z,25.50
2018-08-04T21:12:02.914Z,25.60
2018-08-04T21:14:31.472Z,25.60
2018-08-04T21:16:59.920Z,25.50
2018-08-04T21:19:27.899Z,25.30
2018-08-04T21:24:24.794Z,25.00
2018-08-04T21:26:53.445Z,25.00
2018-08-04T21:29:22.002Z,24.90
2018-08-04T21:34:17.715Z,24.80
2018-08-04T21:36:45.681Z,24.80
2018-08-04T21:39:14.947Z,24.80
2018-08-04T21:41:43.879Z,24.70
2018-08-04T21:44:12.447Z,24.70
2018-08-04T21:46:46.430Z,24.60
2018-08-04T21:49:14.403Z,24.60
2018-08-04T21:51:43.669Z,24.50
2018-08-04T21:56:42.416Z,24.60
2018-08-04T21:59:10.624Z,24.60
2018-08-04T22:01:43.203Z,24.60
2018-08-04T22:04:12.147Z,24.60
2018-08-04T22:06:50.758Z,24.50
2018-08-04T22:09:20.780Z,24.30
2018-08-04T22:11:48.945Z,24.30
2018-08-04T22:14:17.681Z,24.40
2018-08-04T22:16:46.205Z,24.30
2018-08-04T22:19:14.466Z,24.30
2018-08-04T22:21:42.332Z,24.30
2018-08-04T22:24:10.839Z,24.30
2018-08-04T22:29:06.592Z,24.10
2018-08-04T22:31:34.485Z,24.20
2018-08-04T22:34:02.380Z,24.10
2018-08-04T22:36:30.879Z,23.90
2018-08-04T22:43:54.728Z,23.70
2018-08-04T22:46:23.892Z,23.60
2018-08-04T22:48:52.810Z,23.50
2018-08-04T22:53:55.219Z,23.40
2018-08-04T22:56:23.464Z,23.40
2018-08-04T23:01:19.121Z,23.40
2018-08-04T23:06:15.204Z,23.20
2018-08-04T23:08:43.114Z,23.10
2018-08-04T23:11:11.008Z,23.10
2018-08-04T23:13:39.377Z,23.10
2018-08-04T23:18:35.843Z,23.10
2018-08-04T23:21:03.751Z,23.00
2018-08-04T23:23:31.573Z,23.00
2018-08-04T23:25:59.809Z,22.90
2018-08-04T23:28:27.776Z,23.00
2018-08-04T23:30:55.704Z,22.90
2018-08-04T23:33:24.192Z,22.80
2018-08-04T23:38:20.104Z,22.80
2018-08-04T23:40:48.040Z,22.80
2018-08-04T23:48:11.474Z,22.70
2018-08-04T23:50:39.373Z,22.80
2018-08-04T23:53:07.278Z,22.70
2018-08-04T23:55:35.504Z,22.60
2018-08-04T23:58:03.454Z,22.40
